Terminal Aerodrome Forecast
Issued by NWS

Home | Current Version | Previous Version | Text Only | Print | Product List | Glossary On
Versions: 1 2 3 4 5 6 7 8 9 10 11 12
000
FTUS42 TJSJ 262339
TAFJBQ
TAF
TJBQ 262339Z 2700/2724 08010KT P6SM FEW030 SCT070
     FM270400 10005KT P6SM FEW030
     FM271400 08014G24KT P6SM VCSH SCT025 SCT050
     FM272300 09008KT P6SM SCT025
      AMD NOT SKED 2702/2711=

USA.gov is the U.S. government's official web portal to all federal, state and local government web resources and services.